Zim Qingdao — A8IZ2 — position and weather

sailwx.info

Track history (hours):
 
Tides and Currents Weather Stations Pressure Air Temp Water Temp Dewpoint Dewpoint Depression Visibility Wind Speed Wind Dir Waves Ship Positions

Zim Qingdao

Last reported at 2014-Sep-16 02:33 UTC. Time now 2014-Sep-16 03:00 UTC.
Position N 44°06' E 009°06'.

Length 260.61 m; beam 32.25 m; draft 12.6 m.

Type: Cargo ship. MMSI: 636012904.

Date/timePositionNaut miles runAvg speedWind from/ knotsBaromVisibWave heightAir tempDewpointWater temp
2014-Sep-16 02:33N 44°06' E 009°06'1514.6
2014-Sep-16 01:33N 43°52' E 009°12'1514.7
2014-Sep-16 00:33N 43°38' E 009°19'1514.9
2014-Sep-15 23:34N 43°24' E 009°25'1515.2
2014-Sep-15 22:33N 43°10' E 009°32'2015.2
2014-Sep-15 21:14N 42°53' E 009°48'2615.0
2014-Sep-15 19:31N 42°36' E 010°14'2114.9
2014-Sep-15 18:08N 42°21' E 010°33'1015.0
2014-Sep-15 17:29N 42°14' E 010°42'16914.7
2014-Sep-15 06:00N 40°12' E 013°18'36415.2 1015.010.8 24.823.0
2014-Sep-14 06:00N 36°54' E 019°48'16914.4 270 / 81012.010.8 25.822.0
2014-Sep-13 18:14N 36°28' E 023°16'1316.4
2014-Sep-13 17:27N 36°41' E 023°19'1415.8
2014-Sep-13 16:33N 36°55' E 023°21'3515.2
2014-Sep-13 14:13N 37°26' E 023°42'1115.9
2014-Sep-13 13:33N 37°37' E 023°42'1615.7
2014-Sep-13 12:33N 37°52' E 023°36'5 1.0
2014-Sep-13 07:08N 37°57' E 023°36'0 0.0
2014-Sep-13 06:32N 37°57' E 023°36'0 0.0
2014-Sep-13 05:32N 37°57' E 023°36'0 0.0
2014-Sep-13 04:32N 37°57' E 023°36'0 0.0
2014-Sep-13 03:32N 37°57' E 023°36'0 0.0
2014-Sep-13 02:29N 37°57' E 023°36'0 0.0
2014-Sep-12 23:32N 37°57' E 023°36'0 0.0
2014-Sep-12 22:32N 37°57' E 023°36'0 0.0
2014-Sep-12 21:32N 37°57' E 023°36'1 0.9
2014-Sep-12 20:33N 37°56' E 023°36'4 4.2
2014-Sep-12 19:33N 37°53' E 023°38'4016.1
2014-Sep-12 17:03N 37°15' E 023°57'2718.2
2014-Sep-12 15:33N 36°49' E 024°08'1818.0
2014-Sep-12 14:34N 36°34' E 024°19'1918.5
2014-Sep-12 13:33N 36°24' E 024°38'1818.1
2014-Sep-12 12:33N 36°14' E 024°57'1818.2
2014-Sep-12 11:33N 36°04' E 025°16'1818.4
2014-Sep-12 10:33N 35°54' E 025°35'2318.1
2014-Sep-12 09:16N 35°41' E 025°59'3118.1
2014-Sep-12 07:33N 35°24' E 026°31'3824.2
2014-Sep-12 06:00N 35°06' E 027°12'   310 / 31013.010.8 25.223.0
2014-Sep-09 22:13N 32°46' E 034°49'710.4
2014-Sep-09 21:33N 32°39' E 034°47'1010.4
2014-Sep-09 20:33N 32°29' E 034°44'1010.2
2014-Sep-09 19:33N 32°19' E 034°39'1010.1
2014-Sep-09 18:33N 32°10' E 034°36'  
2014-Sep-07 06:00N 33°42' E 027°00'   290 / 41009.010.8 25.421.0
Track history (hours):
 
Tides and Currents Weather Stations Pressure Air Temp Water Temp Dewpoint Dewpoint Depression Visibility Wind Speed Wind Dir Waves Ship Positions

Zim Qingdao

Last reported at 2014-Sep-16 02:33 UTC. Time now 2014-Sep-16 03:00 UTC.
Position N 44°06' E 009°06'.

Length 260.61 m; beam 32.25 m; draft 12.6 m.

Type: Cargo ship. MMSI: 636012904.

Date/timePositionNaut miles runAvg speedWind from/ knotsBaromVisibWave heightAir tempDewpointWater temp
2014-Sep-16 02:33N 44°06' E 009°06'1514.6
2014-Sep-16 01:33N 43°52' E 009°12'1514.7
2014-Sep-16 00:33N 43°38' E 009°19'1514.9
2014-Sep-15 23:34N 43°24' E 009°25'1515.2
2014-Sep-15 22:33N 43°10' E 009°32'2015.2
2014-Sep-15 21:14N 42°53' E 009°48'2615.0
2014-Sep-15 19:31N 42°36' E 010°14'2114.9
2014-Sep-15 18:08N 42°21' E 010°33'1015.0
2014-Sep-15 17:29N 42°14' E 010°42'16914.7
2014-Sep-15 06:00N 40°12' E 013°18'36415.2 1015.010.8 24.823.0
2014-Sep-14 06:00N 36°54' E 019°48'16914.4 270 / 81012.010.8 25.822.0
2014-Sep-13 18:14N 36°28' E 023°16'1316.4
2014-Sep-13 17:27N 36°41' E 023°19'1415.8
2014-Sep-13 16:33N 36°55' E 023°21'3515.2
2014-Sep-13 14:13N 37°26' E 023°42'1115.9
2014-Sep-13 13:33N 37°37' E 023°42'1615.7
2014-Sep-13 12:33N 37°52' E 023°36'5 1.0
2014-Sep-13 07:08N 37°57' E 023°36'0 0.0
2014-Sep-13 06:32N 37°57' E 023°36'0 0.0
2014-Sep-13 05:32N 37°57' E 023°36'0 0.0
2014-Sep-13 04:32N 37°57' E 023°36'0 0.0
2014-Sep-13 03:32N 37°57' E 023°36'0 0.0
2014-Sep-13 02:29N 37°57' E 023°36'0 0.0
2014-Sep-12 23:32N 37°57' E 023°36'0 0.0
2014-Sep-12 22:32N 37°57' E 023°36'0 0.0
2014-Sep-12 21:32N 37°57' E 023°36'1 0.9
2014-Sep-12 20:33N 37°56' E 023°36'4 4.2
2014-Sep-12 19:33N 37°53' E 023°38'4016.1
2014-Sep-12 17:03N 37°15' E 023°57'2718.2
2014-Sep-12 15:33N 36°49' E 024°08'1818.0
2014-Sep-12 14:34N 36°34' E 024°19'1918.5
2014-Sep-12 13:33N 36°24' E 024°38'1818.1
2014-Sep-12 12:33N 36°14' E 024°57'1818.2
2014-Sep-12 11:33N 36°04' E 025°16'1818.4
2014-Sep-12 10:33N 35°54' E 025°35'2318.1
2014-Sep-12 09:16N 35°41' E 025°59'3118.1
2014-Sep-12 07:33N 35°24' E 026°31'3824.2
2014-Sep-12 06:00N 35°06' E 027°12'   310 / 31013.010.8 25.223.0
2014-Sep-09 22:13N 32°46' E 034°49'710.4
2014-Sep-09 21:33N 32°39' E 034°47'1010.4
2014-Sep-09 20:33N 32°29' E 034°44'1010.2
2014-Sep-09 19:33N 32°19' E 034°39'1010.1
2014-Sep-09 18:33N 32°10' E 034°36'  
2014-Sep-07 06:00N 33°42' E 027°00'   290 / 41009.010.8 25.421.0

Dump ship's entire track history